createdAt,value
2023-09-21T00:04:23.634Z,100.00
2023-09-21T00:09:26.711Z,100.00
2023-09-21T00:14:29.700Z,100.00
2023-09-21T00:19:32.709Z,100.00
2023-09-21T00:24:38.172Z,100.00
2023-09-21T00:29:42.233Z,100.00
2023-09-21T00:34:45.268Z,100.00
2023-09-21T00:39:49.153Z,100.00
2023-09-21T00:44:53.290Z,100.00
2023-09-21T00:49:56.499Z,100.00
2023-09-21T00:55:00.109Z,99.99
2023-09-21T01:00:06.034Z,100.00
2023-09-21T01:05:19.335Z,100.00
2023-09-21T01:10:24.512Z,100.00
2023-09-21T01:15:27.806Z,100.00
2023-09-21T01:20:33.728Z,100.00
2023-09-21T01:25:40.436Z,100.00
2023-09-21T01:30:43.372Z,100.00
2023-09-21T01:35:47.031Z,100.00
2023-09-21T01:40:50.140Z,99.93
2023-09-21T01:45:53.456Z,99.78
2023-09-21T01:50:59.245Z,99.62
2023-09-21T02:01:46.866Z,99.99
2023-09-21T02:06:49.806Z,100.00
2023-09-21T02:11:52.748Z,100.00
2023-09-21T02:16:56.464Z,100.00
2023-09-21T02:21:59.445Z,100.00
2023-09-21T02:27:02.400Z,100.00
2023-09-21T02:32:05.458Z,100.00
2023-09-21T02:37:08.770Z,100.00
2023-09-21T02:42:12.228Z,100.00
2023-09-21T02:47:15.401Z,100.00
2023-09-21T02:52:18.404Z,100.00
2023-09-21T02:57:22.049Z,100.00
2023-09-21T03:02:25.610Z,100.00
2023-09-21T03:07:28.657Z,100.00
2023-09-21T03:12:31.661Z,100.00
2023-09-21T03:17:40.212Z,100.00
2023-09-21T03:22:43.310Z,100.00
2023-09-21T03:27:50.004Z,100.00
2023-09-21T03:32:53.743Z,100.00
2023-09-21T03:37:57.181Z,100.00
2023-09-21T03:43:01.379Z,100.00
2023-09-21T03:48:07.560Z,100.00
2023-09-21T03:53:11.423Z,100.00
2023-09-21T03:58:16.376Z,100.00
2023-09-21T04:03:19.980Z,100.00
2023-09-21T04:08:23.289Z,100.00
2023-09-21T04:13:26.810Z,100.00
2023-09-21T04:18:29.896Z,100.00
2023-09-21T04:23:33.750Z,100.00
2023-09-21T04:28:36.646Z,100.00
2023-09-21T04:33:39.678Z,100.00
2023-09-21T04:38:44.141Z,100.00
2023-09-21T04:43:47.853Z,100.00
2023-09-21T04:48:50.880Z,99.93
2023-09-21T04:53:53.948Z,98.29
2023-09-21T04:58:57.441Z,95.70
2023-09-21T05:04:00.997Z,93.89
2023-09-21T05:09:04.605Z,91.02
2023-09-21T05:14:09.125Z,88.73
2023-09-21T05:19:13.868Z,86.44
2023-09-21T05:24:16.937Z,85.19
2023-09-21T05:29:23.990Z,82.99
2023-09-21T05:34:29.722Z,80.64
2023-09-21T05:39:32.801Z,78.81
2023-09-21T05:44:35.784Z,76.30
2023-09-21T05:49:39.195Z,71.90
2023-09-21T05:54:43.923Z,68.67
2023-09-21T05:59:47.205Z,66.40
2023-09-21T06:04:50.256Z,64.64
2023-09-21T06:09:53.378Z,62.75
2023-09-21T06:14:59.302Z,60.77
2023-09-21T06:20:02.459Z,58.15
2023-09-21T06:25:08.015Z,56.52
2023-09-21T06:30:13.724Z,54.97
2023-09-21T06:35:16.888Z,52.83
2023-09-21T06:40:19.740Z,51.33
2023-09-21T06:45:22.837Z,51.21
2023-09-21T06:50:25.916Z,49.46
2023-09-21T06:55:29.739Z,47.52
2023-09-21T07:00:32.828Z,46.04
2023-09-21T07:05:35.961Z,44.59
2023-09-21T07:10:39.421Z,42.84
2023-09-21T07:15:42.799Z,41.48
2023-09-21T07:20:46.040Z,39.65
2023-09-21T07:25:49.117Z,38.45
2023-09-21T07:30:56.487Z,37.01
2023-09-21T07:35:59.610Z,36.41
2023-09-21T07:41:04.553Z,34.34
2023-09-21T07:46:07.596Z,32.99
2023-09-21T07:51:10.693Z,31.68
2023-09-21T07:56:15.483Z,30.70
2023-09-21T08:01:18.892Z,29.61
2023-09-21T08:06:24.178Z,28.14
2023-09-21T08:11:27.690Z,27.31
2023-09-21T08:16:31.193Z,26.91
2023-09-21T08:21:35.224Z,25.93
2023-09-21T08:26:38.825Z,25.71
2023-09-21T08:31:42.792Z,25.12
2023-09-21T08:36:46.272Z,24.26
2023-09-21T08:41:51.311Z,23.75
2023-09-21T08:46:56.378Z,23.03
2023-09-21T08:52:02.197Z,21.58
2023-09-21T08:57:06.244Z,21.76
2023-09-21T09:02:16.694Z,21.95
2023-09-21T09:07:20.041Z,21.82
2023-09-21T09:12:24.983Z,21.75
2023-09-21T09:17:31.168Z,21.83
2023-09-21T09:22:39.655Z,22.00
2023-09-21T09:27:43.884Z,22.22
2023-09-21T09:32:48.682Z,22.40
2023-09-21T09:37:51.641Z,22.60
2023-09-21T09:42:58.393Z,22.86
2023-09-21T09:48:05.517Z,22.09
2023-09-21T09:53:13.356Z,21.85
2023-09-21T09:58:16.993Z,21.45
2023-09-21T10:03:20.895Z,20.79
2023-09-21T10:08:27.375Z,20.43
2023-09-21T10:13:31.553Z,20.37
2023-09-21T10:18:39.526Z,20.29
2023-09-21T10:24:04.617Z,20.52
2023-09-21T10:29:08.716Z,20.82
2023-09-21T10:34:14.120Z,20.99
2023-09-21T10:39:27.767Z,20.87
2023-09-21T10:45:01.311Z,20.86
2023-09-21T10:50:08.037Z,21.04
2023-09-21T10:55:13.552Z,20.94
2023-09-21T11:00:20.260Z,20.77
2023-09-21T11:05:23.758Z,20.61
2023-09-21T11:10:27.180Z,20.17
2023-09-21T11:15:33.779Z,20.63
2023-09-21T11:20:37.417Z,20.85
2023-09-21T11:25:40.268Z,20.96
2023-09-21T11:30:43.782Z,21.06
2023-09-21T11:35:46.823Z,21.16
2023-09-21T11:40:53.592Z,21.39
2023-09-21T11:45:56.587Z,21.10
2023-09-21T11:51:00.660Z,21.15
2023-09-21T11:56:03.938Z,21.49
2023-09-21T12:01:06.964Z,21.47
2023-09-21T12:06:13.077Z,21.37
2023-09-21T12:11:17.607Z,21.77
2023-09-21T12:16:20.691Z,22.10
2023-09-21T12:21:23.816Z,21.97
2023-09-21T12:26:27.132Z,21.60
2023-09-21T12:31:41.113Z,22.10
2023-09-21T12:36:53.455Z,22.16
2023-09-21T12:41:56.863Z,22.14
2023-09-21T12:47:00.851Z,22.22
2023-09-21T12:52:05.242Z,22.53
2023-09-21T12:57:09.090Z,23.24
2023-09-21T13:02:13.695Z,23.28
2023-09-21T13:07:16.862Z,23.04
2023-09-21T13:12:20.631Z,23.28
2023-09-21T13:17:25.030Z,23.67
2023-09-21T13:22:28.342Z,24.33
2023-09-21T13:27:31.412Z,24.73
2023-09-21T13:32:34.592Z,25.17
2023-09-21T13:37:37.562Z,25.44
2023-09-21T13:42:41.058Z,25.73
2023-09-21T13:47:45.181Z,26.24
2023-09-21T13:52:48.112Z,26.42
2023-09-21T13:57:51.099Z,27.15
2023-09-21T14:02:55.489Z,27.62
2023-09-21T14:07:59.206Z,27.92
2023-09-21T14:13:03.253Z,28.49
2023-09-21T14:18:06.975Z,29.09
2023-09-21T14:23:10.069Z,29.52
2023-09-21T14:28:13.373Z,30.49
2023-09-21T14:33:18.232Z,31.19
2023-09-21T14:38:21.742Z,32.42
2023-09-21T14:43:24.793Z,33.35
2023-09-21T14:48:27.883Z,34.31
2023-09-21T14:53:31.585Z,35.11
2023-09-21T14:58:34.721Z,35.86
2023-09-21T15:03:38.022Z,36.28
2023-09-21T15:08:41.129Z,36.57
2023-09-21T15:13:44.646Z,37.22
2023-09-21T15:18:48.165Z,38.08
2023-09-21T15:23:51.882Z,38.77
2023-09-21T15:28:55.190Z,39.17
2023-09-21T15:33:59.551Z,40.01
2023-09-21T15:39:03.279Z,40.91
2023-09-21T15:44:06.973Z,41.67
2023-09-21T15:49:10.260Z,42.29
2023-09-21T15:54:13.690Z,42.91
2023-09-21T15:59:17.123Z,44.02
2023-09-21T16:04:20.837Z,44.91
2023-09-21T16:09:24.075Z,45.71
2023-09-21T16:14:27.472Z,46.77
2023-09-21T16:19:31.537Z,47.76
2023-09-21T16:24:35.362Z,48.85
2023-09-21T16:29:38.950Z,49.94
2023-09-21T16:34:42.427Z,50.92
2023-09-21T16:39:46.141Z,51.77
2023-09-21T16:44:49.546Z,52.64
2023-09-21T16:49:53.749Z,53.18
2023-09-21T16:54:57.683Z,53.77
2023-09-21T17:00:01.013Z,54.83
2023-09-21T17:05:05.332Z,55.47
2023-09-21T17:10:09.794Z,56.49
2023-09-21T17:15:15.368Z,57.07
2023-09-21T17:20:19.163Z,57.80
2023-09-21T17:25:23.418Z,58.53
2023-09-21T17:30:26.869Z,59.29
2023-09-21T17:35:30.350Z,60.37
2023-09-21T17:40:33.885Z,61.18
2023-09-21T17:45:37.246Z,62.22
2023-09-21T17:50:44.780Z,63.18
2023-09-21T17:55:51.064Z,63.73
2023-09-21T18:00:54.628Z,64.70
2023-09-21T18:05:58.572Z,65.35
2023-09-21T18:11:03.620Z,66.15
2023-09-21T18:16:07.180Z,66.77
2023-09-21T18:21:10.766Z,67.22
2023-09-21T18:26:15.869Z,67.52
2023-09-21T18:31:19.840Z,68.34
2023-09-21T18:36:23.432Z,68.84
2023-09-21T18:41:27.076Z,69.59
2023-09-21T18:46:31.545Z,70.01
2023-09-21T18:51:35.070Z,70.19
2023-09-21T18:56:50.697Z,70.59
2023-09-21T19:01:58.676Z,71.11
2023-09-21T19:07:02.259Z,71.75
2023-09-21T19:12:08.268Z,72.08
2023-09-21T19:17:11.338Z,72.49
2023-09-21T19:22:16.708Z,72.85
2023-09-21T19:27:20.467Z,72.77
2023-09-21T19:32:23.732Z,73.33
2023-09-21T19:37:27.658Z,73.54
2023-09-21T19:42:30.948Z,73.92
2023-09-21T19:47:34.104Z,74.34
2023-09-21T19:52:37.166Z,74.71
2023-09-21T19:57:45.456Z,75.32
2023-09-21T20:02:51.501Z,75.54
2023-09-21T20:07:54.621Z,75.29
2023-09-21T20:12:57.611Z,75.29
2023-09-21T20:18:00.803Z,75.44
2023-09-21T20:23:03.835Z,75.69
2023-09-21T20:28:07.048Z,75.53
2023-09-21T20:33:10.110Z,75.55
2023-09-21T20:38:13.782Z,75.77
2023-09-21T20:43:17.711Z,76.06
2023-09-21T20:48:20.746Z,76.19
2023-09-21T20:53:23.558Z,75.92
2023-09-21T20:58:26.524Z,76.12
2023-09-21T21:03:29.653Z,76.20
2023-09-21T21:08:32.849Z,76.42
2023-09-21T21:13:35.860Z,76.99
2023-09-21T21:18:39.033Z,77.06
2023-09-21T21:23:42.543Z,77.28
2023-09-21T21:28:45.628Z,77.41
2023-09-21T21:33:48.665Z,77.85
2023-09-21T21:38:52.141Z,78.41
2023-09-21T21:43:56.357Z,78.71
2023-09-21T21:48:59.457Z,78.87
2023-09-21T21:54:02.675Z,79.40
2023-09-21T21:59:06.301Z,79.73
2023-09-21T22:04:09.341Z,80.03
2023-09-21T22:09:12.446Z,80.26
2023-09-21T22:14:15.674Z,80.70
2023-09-21T22:19:18.732Z,81.49
2023-09-21T22:24:21.782Z,82.19
2023-09-21T22:29:25.050Z,82.45
2023-09-21T22:34:27.955Z,82.83
2023-09-21T22:39:30.878Z,83.13
2023-09-21T22:44:33.751Z,83.44
2023-09-21T22:49:36.977Z,83.45
2023-09-21T22:54:40.660Z,83.62
2023-09-21T22:59:44.627Z,83.88
2023-09-21T23:04:51.950Z,84.28
2023-09-21T23:09:55.388Z,84.53
2023-09-21T23:14:58.365Z,84.85
2023-09-21T23:20:01.367Z,85.08
2023-09-21T23:25:05.360Z,85.34
2023-09-21T23:30:10.024Z,85.73
2023-09-21T23:35:13.462Z,85.82
2023-09-21T23:40:16.476Z,85.95
2023-09-21T23:45:20.235Z,85.90
2023-09-21T23:50:23.919Z,85.97
2023-09-21T23:55:26.922Z,85.62
